Terminal Aerodrome Forecast
Issued by NWS

Home | Current Version | Previous Version | Text Only | Print | Product List | Glossary On
Versions: 1 2 3 4 5 6 7 8 9 10 11 12 13 14 15 16 17 18 19
321
FTUS45 KVEF 231720
TAFBIH
TAF
KBIH 231720Z 2318/2418 36011G16KT P6SM FEW100
     FM240300 34010KT P6SM SKC=

USA.gov is the U.S. government's official web portal to all federal, state and local government web resources and services.